Time;durP1;ratioP1;P1;durP2;ratioP2;P2;SDS_P1;SDS_P2;PMS_P1;PMS_P2;Temp;Humidity;BMP_temperature;BMP_pressure;BME280_temperature;BME280_humidity;BME280_pressure;Samples;Min_cycle;Max_cycle;Signal;HPM_P1;HPM_P2
2023/01/17 00:02:05;;;;;;;3.65;0.98;;;2.70;99.90;;;;;;6184729;23;20039;-81
2023/01/17 00:10:06;;;;;;;4.82;0.57;;;3.10;99.90;;;;;;6190282;23;20020;-81
2023/01/17 00:12:33;;;;;;;1.65;0.47;;;3.40;99.90;;;;;;6184617;23;20013;-83
2023/01/17 00:14:59;;;;;;;4.95;0.73;;;3.00;99.90;;;;;;6208776;23;20016;-78
2023/01/17 00:17:27;;;;;;;8.57;2.13;;;3.30;99.90;;;;;;6210756;23;20028;-81
2023/01/17 01:35:25;;;;;;;8.98;1.70;;;3.10;99.90;;;;;;6212876;23;20024;-79
2023/01/17 01:37:50;;;;;;;9.82;1.65;;;3.10;99.90;;;;;;6212734;23;20614;-77
2023/01/17 01:40:18;;;;;;;4.38;1.10;;;3.20;99.90;;;;;;6190152;23;20021;-81
2023/01/17 01:42:55;;;;;;;8.75;2.17;;;3.20;99.90;;;;;;6158644;23;20016;-78
2023/01/17 01:45:27;;;;;;;8.50;1.67;;;3.50;99.90;;;;;;6209450;23;20020;-77
2023/01/17 01:48:05;;;;;;;6.43;0.90;;;3.50;99.90;;;;;;6210709;23;20091;-80
2023/01/17 01:50:34;;;;;;;6.45;0.70;;;3.40;99.90;;;;;;6212013;23;20013;-78
2023/01/17 01:53:02;;;;;;;7.32;1.25;;;3.50;99.90;;;;;;6184787;23;20449;-80
2023/01/17 01:55:32;;;;;;;9.02;0.77;;;3.50;99.90;;;;;;6211235;23;20027;-80
2023/01/17 01:58:03;;;;;;;15.38;1.50;;;3.50;99.90;;;;;;6210907;23;20166;-81
2023/01/17 02:00:33;;;;;;;7.40;1.25;;;3.10;99.90;;;;;;6184763;23;20016;-77
2023/01/17 02:03:04;;;;;;;15.55;1.85;;;3.30;99.90;;;;;;6185991;23;20099;-77
2023/01/17 02:05:32;;;;;;;10.73;1.30;;;3.30;99.90;;;;;;6211449;23;20092;-82
2023/01/17 02:08:06;;;;;;;13.85;1.40;;;3.50;99.90;;;;;;6211959;23;20035;-78
2023/01/17 02:10:34;;;;;;;10.25;1.40;;;3.40;99.90;;;;;;6186552;23;20016;-78
2023/01/17 02:13:01;;;;;;;11.23;1.30;;;3.60;99.90;;;;;;6211690;23;20029;-79
2023/01/17 02:15:49;;;;;;;10.88;1.17;;;3.50;99.90;;;;;;6186314;23;20019;-79
2023/01/17 02:18:21;;;;;;;10.98;1.30;;;3.40;99.90;;;;;;6186232;23;20023;-79
2023/01/17 02:21:09;;;;;;;8.43;1.05;;;3.40;99.90;;;;;;6185789;23;20667;-82
2023/01/17 02:24:00;;;;;;;8.00;1.27;;;3.50;99.90;;;;;;6211336;23;20016;-77
2023/01/17 02:27:04;;;;;;;10.18;1.40;;;3.40;99.90;;;;;;6185628;23;20460;-81
2023/01/17 02:29:45;;;;;;;4.47;0.90;;;3.60;99.90;;;;;;6211172;23;20374;-80
2023/01/17 02:32:21;;;;;;;13.18;1.33;;;3.60;99.90;;;;;;6182746;23;20059;-79
2023/01/17 02:35:08;;;;;;;16.58;1.92;;;3.60;99.90;;;;;;6185989;23;20439;-78
2023/01/17 02:37:57;;;;;;;15.95;1.10;;;3.50;99.90;;;;;;6210399;23;20086;-77
2023/01/17 02:40:28;;;;;;;14.10;1.52;;;3.40;99.90;;;;;;6186071;23;20012;-77
2023/01/17 02:42:59;;;;;;;11.38;1.70;;;3.50;99.90;;;;;;6190796;23;20016;-80
2023/01/17 02:45:25;;;;;;;12.02;2.13;;;3.70;99.90;;;;;;6211419;23;20128;-77
2023/01/17 02:47:51;;;;;;;11.07;1.25;;;3.60;99.90;;;;;;6212057;23;20025;-78
2023/01/17 02:50:25;;;;;;;14.18;1.83;;;3.60;99.90;;;;;;6193588;23;20115;-78
2023/01/17 02:52:59;;;;;;;10.90;1.40;;;3.60;99.90;;;;;;6187575;23;20123;-80
2023/01/17 02:55:52;;;;;;;17.42;1.17;;;3.70;99.90;;;;;;6211410;23;20020;-80
2023/01/17 03:02:15;;;;;;;9.32;1.23;;;3.70;99.90;;;;;;6220982;23;20150;-78
2023/01/17 03:04:51;;;;;;;7.85;1.02;;;3.30;99.90;;;;;;6215058;23;20450;-77
2023/01/17 03:07:23;;;;;;;12.57;1.25;;;3.30;99.90;;;;;;6211656;23;20040;-79
2023/01/17 03:09:53;;;;;;;6.53;1.00;;;3.20;99.90;;;;;;6211024;23;20465;-80
2023/01/17 03:12:20;;;;;;;13.07;0.82;;;3.10;99.90;;;;;;6210047;23;20095;-81
2023/01/17 03:14:45;;;;;;;7.03;1.00;;;3.00;99.90;;;;;;6208065;23;20044;-80
2023/01/17 03:17:11;;;;;;;10.82;1.15;;;3.10;99.90;;;;;;6181820;23;20425;-78
2023/01/17 03:19:37;;;;;;;10.60;1.00;;;3.10;99.90;;;;;;6208789;23;20012;-80
2023/01/17 03:22:02;;;;;;;9.23;1.02;;;3.20;99.90;;;;;;6207229;23;20021;-77
2023/01/17 03:24:28;;;;;;;14.00;1.30;;;3.20;99.90;;;;;;6207881;23;20016;-82
2023/01/17 03:26:54;;;;;;;7.88;1.02;;;3.10;99.90;;;;;;6181738;23;20114;-80
2023/01/17 03:29:19;;;;;;;10.15;1.23;;;3.00;99.90;;;;;;6182991;23;20032;-79
2023/01/17 03:31:45;;;;;;;9.00;1.17;;;3.10;99.90;;;;;;6207205;23;20093;-77
2023/01/17 03:34:11;;;;;;;12.82;1.20;;;3.10;99.90;;;;;;6180636;23;20087;-79
2023/01/17 03:36:37;;;;;;;14.15;1.30;;;3.00;99.90;;;;;;6181019;23;20023;-79
2023/01/17 03:39:03;;;;;;;9.45;0.82;;;3.10;99.90;;;;;;6182031;23;20013;-81
2023/01/17 03:41:28;;;;;;;7.53;1.00;;;3.10;99.90;;;;;;6181991;23;20017;-78
2023/01/17 03:43:54;;;;;;;7.90;1.02;;;2.90;99.90;;;;;;6207587;23;20073;-79
2023/01/17 03:46:24;;;;;;;9.90;1.08;;;2.90;99.90;;;;;;6182079;23;20079;-81
2023/01/17 03:48:50;;;;;;;11.07;1.20;;;3.00;99.90;;;;;;6207596;23;20021;-80
2023/01/17 03:51:16;;;;;;;7.85;1.10;;;3.00;99.90;;;;;;6180886;23;20020;-82
2023/01/17 03:53:42;;;;;;;8.82;0.90;;;2.90;99.90;;;;;;6182457;23;20024;-80
2023/01/17 03:56:08;;;;;;;5.70;0.45;;;3.00;99.90;;;;;;6182716;23;20441;-80
2023/01/17 03:58:33;;;;;;;9.10;0.95;;;3.10;99.90;;;;;;6183128;23;20100;-78
2023/01/17 04:00:59;;;;;;;8.00;1.05;;;3.10;99.90;;;;;;6208143;23;20016;-78
2023/01/17 04:03:25;;;;;;;11.57;1.98;;;2.90;99.90;;;;;;6181832;23;20040;-80
2023/01/17 04:05:50;;;;;;;11.25;1.15;;;3.00;99.90;;;;;;6207943;23;20538;-79
2023/01/17 04:08:16;;;;;;;5.57;0.80;;;2.90;99.90;;;;;;6181784;23;20071;-80
2023/01/17 04:10:42;;;;;;;8.32;1.33;;;2.70;99.90;;;;;;6208422;23;20052;-82
2023/01/17 04:13:07;;;;;;;12.38;1.13;;;2.70;99.90;;;;;;6183021;23;20452;-77
2023/01/17 04:15:33;;;;;;;9.10;1.05;;;2.70;99.90;;;;;;6208152;23;20009;-80
2023/01/17 04:17:59;;;;;;;10.82;1.00;;;2.60;99.90;;;;;;6207187;23;20416;-79
2023/01/17 04:20:31;;;;;;;10.88;1.00;;;2.70;99.90;;;;;;6209740;23;20464;-82
2023/01/17 04:22:57;;;;;;;10.50;0.90;;;2.50;99.90;;;;;;6209304;23;20017;-78
2023/01/17 04:25:24;;;;;;;9.85;1.27;;;2.50;99.90;;;;;;6210883;23;20087;-79
2023/01/17 04:27:51;;;;;;;7.55;0.80;;;2.40;99.90;;;;;;6210160;23;20051;-81
2023/01/17 04:30:17;;;;;;;9.90;1.13;;;2.40;99.90;;;;;;6210692;23;20052;-79
2023/01/17 04:32:42;;;;;;;10.85;1.20;;;2.30;99.90;;;;;;6208766;23;20424;-78
2023/01/17 04:35:08;;;;;;;11.40;1.05;;;2.50;99.90;;;;;;6209923;23;20011;-79
2023/01/17 04:37:35;;;;;;;8.48;1.05;;;2.50;99.90;;;;;;6210128;23;20441;-80
2023/01/17 04:40:00;;;;;;;13.80;1.05;;;2.50;99.90;;;;;;6212545;23;20033;-78
2023/01/17 04:42:26;;;;;;;11.85;1.17;;;2.40;99.90;;;;;;6211683;23;20016;-81
2023/01/17 04:44:51;;;;;;;9.48;1.60;;;2.40;99.90;;;;;;6186192;23;20017;-82
2023/01/17 04:47:17;;;;;;;9.10;1.02;;;2.40;99.90;;;;;;6186801;23;20009;-80
2023/01/17 04:49:43;;;;;;;8.65;1.17;;;2.30;99.90;;;;;;6187256;23;20092;-82
2023/01/17 04:52:08;;;;;;;12.43;1.30;;;2.40;99.90;;;;;;6186375;23;20013;-83
2023/01/17 04:54:34;;;;;;;13.02;1.10;;;2.50;99.90;;;;;;6186164;23;20063;-82
2023/01/17 04:56:59;;;;;;;9.95;1.20;;;2.30;99.90;;;;;;6212329;23;20015;-79
2023/01/17 04:59:25;;;;;;;9.27;0.90;;;2.40;99.90;;;;;;6211757;23;20009;-80
2023/01/17 05:01:51;;;;;;;7.90;0.90;;;2.30;99.90;;;;;;6211613;23;20398;-80
2023/01/17 05:04:16;;;;;;;7.80;1.38;;;2.20;99.90;;;;;;6211367;23;20012;-78
2023/01/17 05:06:43;;;;;;;7.43;0.93;;;2.20;99.90;;;;;;6211435;23;20016;-81
2023/01/17 05:09:09;;;;;;;9.00;0.90;;;2.10;99.90;;;;;;6210048;23;20016;-78
2023/01/17 05:11:35;;;;;;;10.25;1.17;;;2.10;99.90;;;;;;6160817;23;20115;-80
2023/01/17 05:14:01;;;;;;;11.10;1.08;;;2.20;99.90;;;;;;6209642;23;20087;-80
2023/01/17 05:16:26;;;;;;;6.05;0.68;;;2.20;99.90;;;;;;6209088;23;20056;-78
2023/01/17 05:18:53;;;;;;;7.03;0.80;;;2.20;99.90;;;;;;6208656;23;20020;-80
2023/01/17 05:21:20;;;;;;;4.95;0.60;;;2.10;99.90;;;;;;6184709;23;20016;-80
2023/01/17 05:23:46;;;;;;;2.85;0.60;;;1.90;99.90;;;;;;6183295;23;20023;-80
2023/01/17 05:26:12;;;;;;;9.05;1.00;;;1.90;99.90;;;;;;6182348;23;20013;-82
2023/01/17 05:28:38;;;;;;;7.95;0.60;;;2.00;99.90;;;;;;6181430;23;20532;-79
2023/01/17 05:31:04;;;;;;;5.80;0.80;;;1.80;99.90;;;;;;6184470;23;20125;-80
2023/01/17 05:33:30;;;;;;;8.93;0.95;;;1.80;99.90;;;;;;6183183;23;20013;-78
2023/01/17 05:35:56;;;;;;;6.30;1.02;;;1.80;99.90;;;;;;6209448;23;20012;-79
2023/01/17 05:38:22;;;;;;;8.52;1.35;;;1.60;99.90;;;;;;6207206;23;20027;-82
2023/01/17 05:40:48;;;;;;;6.15;0.88;;;1.60;99.90;;;;;;6184346;23;20012;-79
2023/01/17 05:43:14;;;;;;;8.90;1.00;;;1.50;99.90;;;;;;6208997;23;20013;-77
2023/01/17 05:45:40;;;;;;;5.82;0.98;;;1.50;99.90;;;;;;6208180;23;20024;-82
2023/01/17 05:48:06;;;;;;;10.48;1.27;;;1.70;99.90;;;;;;6208020;23;20096;-83
2023/01/17 05:50:35;;;;;;;10.63;1.10;;;1.60;99.90;;;;;;6184023;23;20042;-82
2023/01/17 05:53:07;;;;;;;11.85;1.17;;;1.70;99.90;;;;;;6207885;23;20009;-80
2023/01/17 05:55:33;;;;;;;6.63;0.70;;;1.80;99.90;;;;;;6182718;23;20016;-78
2023/01/17 05:58:00;;;;;;;9.40;0.85;;;1.70;99.90;;;;;;6208336;23;20017;-79
2023/01/17 06:00:26;;;;;;;10.88;1.33;;;1.70;99.90;;;;;;6182808;23;20025;-79
2023/01/17 06:02:53;;;;;;;11.55;1.20;;;1.70;99.90;;;;;;6206755;23;20027;-80
2023/01/17 06:05:20;;;;;;;12.77;1.02;;;1.60;99.90;;;;;;6184563;23;20016;-80
2023/01/17 06:07:46;;;;;;;9.88;1.27;;;1.60;99.90;;;;;;6214709;23;20054;-82
2023/01/17 06:10:14;;;;;;;12.00;1.30;;;1.30;99.90;;;;;;6186500;23;20017;-82
2023/01/17 06:12:40;;;;;;;10.75;1.00;;;1.50;99.90;;;;;;6185510;23;20043;-82
2023/01/17 06:15:07;;;;;;;7.45;1.02;;;1.40;99.90;;;;;;6186201;23;20043;-80
2023/01/17 06:17:33;;;;;;;7.32;1.08;;;1.30;99.90;;;;;;6210505;23;20019;-81
2023/01/17 06:19:58;;;;;;;14.82;1.13;;;1.30;99.90;;;;;;6211457;23;20459;-81
2023/01/17 06:22:24;;;;;;;11.15;1.70;;;1.20;99.90;;;;;;6185657;23;20020;-79
2023/01/17 06:24:50;;;;;;;11.73;1.10;;;1.30;99.90;;;;;;6211831;23;20008;-81
2023/01/17 06:27:16;;;;;;;6.75;0.90;;;1.20;99.90;;;;;;6189304;23;20020;-82
2023/01/17 06:29:41;;;;;;;10.80;1.10;;;1.10;99.90;;;;;;6219674;23;20016;-77
2023/01/17 06:32:07;;;;;;;6.63;0.88;;;1.00;99.90;;;;;;6191656;23;20024;-81
2023/01/17 06:34:32;;;;;;;11.52;1.20;;;1.10;99.90;;;;;;6184788;23;20012;-82
2023/01/17 06:36:58;;;;;;;11.38;0.90;;;0.90;99.90;;;;;;6210653;23;20078;-80
2023/01/17 06:39:24;;;;;;;10.75;1.10;;;1.20;99.90;;;;;;6184578;23;20020;-81
2023/01/17 06:41:49;;;;;;;8.18;0.90;;;1.10;99.90;;;;;;6209869;23;20072;-79
2023/01/17 06:44:15;;;;;;;11.70;1.27;;;1.10;99.90;;;;;;6182252;23;20032;-80
2023/01/17 06:46:41;;;;;;;8.25;1.27;;;0.90;99.90;;;;;;6183386;23;20123;-79
2023/01/17 06:49:06;;;;;;;9.57;1.27;;;0.70;99.90;;;;;;6208287;23;20020;-82
2023/01/17 06:51:32;;;;;;;12.23;1.05;;;0.70;99.90;;;;;;6207649;23;20456;-81
2023/01/17 06:53:58;;;;;;;3.20;0.77;;;0.60;99.90;;;;;;6208502;23;20089;-81
2023/01/17 06:56:23;;;;;;;11.20;1.48;;;0.50;99.90;;;;;;6183747;23;20016;-78
2023/01/17 06:58:50;;;;;;;8.50;1.02;;;0.80;99.90;;;;;;6207967;23;20024;-79
2023/01/17 07:01:17;;;;;;;9.02;1.00;;;0.80;99.90;;;;;;6206788;23;20024;-80
2023/01/17 07:03:43;;;;;;;10.73;1.05;;;0.80;99.90;;;;;;6218249;23;20004;-80
2023/01/17 07:06:09;;;;;;;9.23;1.17;;;0.60;99.90;;;;;;6184232;23;20191;-81
2023/01/17 07:08:35;;;;;;;9.50;1.15;;;0.70;99.90;;;;;;6182163;23;20073;-80
2023/01/17 07:11:06;;;;;;;9.73;1.05;;;0.80;99.90;;;;;;6209484;23;20456;-79
2023/01/17 07:13:39;;;;;;;5.95;1.20;;;0.50;99.90;;;;;;6186019;23;20020;-79
2023/01/17 07:16:06;;;;;;;9.88;0.82;;;0.70;99.90;;;;;;6181813;23;20432;-81
2023/01/17 07:18:32;;;;;;;9.40;1.02;;;0.60;99.90;;;;;;6183125;23;20475;-82
2023/01/17 07:20:58;;;;;;;8.82;1.20;;;0.50;99.90;;;;;;6181225;23;20368;-82
2023/01/17 07:23:25;;;;;;;5.13;1.10;;;0.70;99.90;;;;;;6181408;23;20016;-78
2023/01/17 07:25:58;;;;;;;7.72;1.00;;;0.50;99.90;;;;;;6182699;23;20020;-80
2023/01/17 07:28:25;;;;;;;5.63;0.77;;;0.50;99.90;;;;;;6181625;23;20068;-78
2023/01/17 07:30:51;;;;;;;8.57;1.00;;;0.50;99.90;;;;;;6181413;23;20016;-77
2023/01/17 07:33:16;;;;;;;11.95;1.27;;;0.70;99.90;;;;;;6212492;23;20013;-79
2023/01/17 07:35:42;;;;;;;4.35;0.90;;;0.80;99.90;;;;;;6207524;23;20019;-79
2023/01/17 07:38:13;;;;;;;7.28;0.80;;;0.80;99.90;;;;;;6181791;23;20013;-81
2023/01/17 07:40:39;;;;;;;7.85;1.25;;;0.60;99.90;;;;;;6179291;23;20116;-79
2023/01/17 07:43:12;;;;;;;4.55;0.80;;;0.70;99.90;;;;;;6203563;23;20017;-80
2023/01/17 07:45:41;;;;;;;9.07;1.00;;;0.80;99.90;;;;;;6178695;23;20024;-80
2023/01/17 07:48:07;;;;;;;9.48;1.20;;;0.50;99.90;;;;;;6179481;23;20092;-79
2023/01/17 07:50:33;;;;;;;9.60;1.00;;;0.80;99.90;;;;;;6177728;23;20048;-80
2023/01/17 07:52:58;;;;;;;9.48;1.25;;;0.70;99.90;;;;;;6204685;23;20042;-81
2023/01/17 07:55:24;;;;;;;2.65;0.80;;;0.80;99.90;;;;;;6179275;23;20027;-82
2023/01/17 07:57:50;;;;;;;8.50;1.33;;;0.80;99.90;;;;;;6180696;23;20434;-80
2023/01/17 08:00:16;;;;;;;5.47;0.68;;;0.80;99.90;;;;;;6203648;23;20012;-78
2023/01/17 08:02:42;;;;;;;6.70;1.00;;;0.80;99.90;;;;;;6179182;23;20016;-80
2023/01/17 08:05:08;;;;;;;3.90;0.90;;;0.70;99.90;;;;;;6203951;23;20028;-80
2023/01/17 08:07:34;;;;;;;4.88;1.08;;;0.50;99.90;;;;;;6202974;23;20021;-80
2023/01/17 08:10:00;;;;;;;6.05;0.93;;;0.80;99.90;;;;;;6179320;23;20017;-80
2023/01/17 08:12:26;;;;;;;9.13;1.00;;;0.60;99.90;;;;;;6208066;23;20024;-80
2023/01/17 08:14:52;;;;;;;6.65;1.10;;;0.80;99.90;;;;;;6184528;23;20595;-81
2023/01/17 08:17:19;;;;;;;7.80;1.45;;;0.70;99.90;;;;;;6209222;23;20013;-78
2023/01/17 08:19:45;;;;;;;6.13;1.27;;;0.70;99.90;;;;;;6208274;23;20103;-78
2023/01/17 08:22:11;;;;;;;10.45;1.27;;;0.70;99.90;;;;;;6184440;23;20385;-79
2023/01/17 08:24:37;;;;;;;11.18;0.82;;;0.90;99.90;;;;;;6183586;23;20404;-78
2023/01/17 08:27:03;;;;;;;5.05;0.90;;;0.70;99.90;;;;;;6209657;23;20020;-80
2023/01/17 08:29:29;;;;;;;8.90;1.05;;;0.70;99.90;;;;;;6209329;23;20019;-82
2023/01/17 08:31:54;;;;;;;3.13;0.90;;;0.90;99.90;;;;;;6183465;23;20021;-82
2023/01/17 08:34:21;;;;;;;9.77;1.17;;;1.20;99.90;;;;;;6207470;23;20008;-81
2023/01/17 08:36:46;;;;;;;6.22;0.95;;;1.20;99.90;;;;;;6181429;23;20008;-77
2023/01/17 08:39:14;;;;;;;7.10;1.27;;;1.10;99.90;;;;;;6184056;23;20087;-80
2023/01/17 08:41:40;;;;;;;4.90;0.95;;;1.20;99.90;;;;;;6210138;23;20013;-82
2023/01/17 08:44:05;;;;;;;5.93;1.10;;;1.00;99.90;;;;;;6183015;23;20016;-79
2023/01/17 08:46:31;;;;;;;5.03;1.15;;;1.10;99.90;;;;;;6182033;23;20027;-78
2023/01/17 08:48:58;;;;;;;8.18;1.17;;;1.20;99.90;;;;;;6183933;23;20023;-79
2023/01/17 08:51:25;;;;;;;6.20;0.90;;;1.40;99.90;;;;;;6178694;23;20051;-80
2023/01/17 08:53:52;;;;;;;9.48;0.88;;;1.50;99.90;;;;;;6157393;23;20439;-79
2023/01/17 08:56:18;;;;;;;6.47;0.82;;;1.60;99.90;;;;;;6181568;23;20020;-83
2023/01/17 08:58:44;;;;;;;3.60;0.80;;;1.50;99.90;;;;;;6206527;23;20454;-81
2023/01/17 09:01:09;;;;;;;4.22;0.90;;;1.70;99.90;;;;;;6183302;23;20028;-80
2023/01/17 09:03:47;;;;;;;10.85;1.02;;;1.70;99.90;;;;;;6184991;23;20020;-81
2023/01/17 09:06:14;;;;;;;6.07;1.05;;;1.70;99.90;;;;;;6207012;23;20019;-82
2023/01/17 09:08:45;;;;;;;6.80;1.13;;;1.50;99.90;;;;;;6187379;23;20019;-82
2023/01/17 09:11:16;;;;;;;11.88;1.08;;;1.50;99.90;;;;;;6208413;23;20021;-81
2023/01/17 09:13:42;;;;;;;8.00;0.70;;;1.60;99.90;;;;;;6208281;23;20024;-81
2023/01/17 09:16:08;;;;;;;4.55;1.05;;;1.70;99.90;;;;;;6207380;23;20016;-84
2023/01/17 09:18:35;;;;;;;9.43;1.08;;;1.60;99.90;;;;;;6206893;23;20711;-82
2023/01/17 09:21:15;;;;;;;9.52;1.15;;;1.60;99.90;;;;;;6206140;23;20071;-79
2023/01/17 09:23:42;;;;;;;7.72;0.90;;;1.80;99.90;;;;;;6206621;23;20012;-85
2023/01/17 09:26:21;;;;;;;8.50;1.05;;;1.70;99.90;;;;;;6187539;23;20031;-84
2023/01/17 09:28:47;;;;;;;5.18;0.90;;;1.80;99.90;;;;;;6183858;23;20027;-81
2023/01/17 09:31:13;;;;;;;9.93;1.05;;;1.90;99.90;;;;;;6208360;23;20274;-82
2023/01/17 09:33:42;;;;;;;6.80;0.98;;;1.90;99.90;;;;;;6208943;23;20032;-83
2023/01/17 09:36:09;;;;;;;9.77;1.08;;;2.30;99.90;;;;;;6209031;23;20016;-84
2023/01/17 09:38:35;;;;;;;10.25;1.25;;;2.40;99.90;;;;;;6184112;23;20005;-83
2023/01/17 09:41:02;;;;;;;7.95;1.02;;;2.50;99.90;;;;;;6187071;23;20022;-80
2023/01/17 09:43:42;;;;;;;7.53;1.00;;;2.60;99.90;;;;;;6181844;23;20095;-81
2023/01/17 09:46:47;;;;;;;4.85;0.70;;;2.60;99.90;;;;;;6185829;23;20012;-81
2023/01/17 09:49:36;;;;;;;4.90;0.70;;;2.60;99.90;;;;;;6096719;23;20025;-81
2023/01/17 09:52:04;;;;;;;5.03;0.65;;;2.60;99.90;;;;;;6133205;23;20025;-77
2023/01/17 09:54:40;;;;;;;2.95;0.57;;;2.70;99.90;;;;;;6125186;23;20045;-80
2023/01/17 09:57:17;;;;;;;4.30;0.40;;;2.80;99.90;;;;;;6117895;23;20025;-76
2023/01/17 10:00:17;;;;;;;1.55;0.35;;;3.00;99.90;;;;;;6068860;23;20092;-80
2023/01/17 10:03:07;;;;;;;1.23;0.20;;;2.90;99.90;;;;;;6070648;23;20018;-80
2023/01/17 10:05:54;;;;;;;4.45;0.40;;;3.00;99.90;;;;;;6116675;23;20079;-79
2023/01/17 10:08:47;;;;;;;0.90;0.20;;;3.00;99.90;;;;;;6094586;23;20033;-77
2023/01/17 10:11:37;;;;;;;2.10;0.40;;;3.00;99.90;;;;;;5986052;23;20489;-79
2023/01/17 10:14:13;;;;;;;0.60;0.25;;;3.00;99.90;;;;;;6032251;23;20019;-80
2023/01/17 10:16:59;;;;;;;4.97;0.40;;;3.10;99.90;;;;;;6033990;23;20019;-78
2023/01/17 10:19:53;;;;;;;2.20;0.30;;;3.10;99.90;;;;;;6056483;23;20053;-80
2023/01/17 10:22:21;;;;;;;4.05;0.60;;;3.10;99.90;;;;;;6096017;23;20017;-80
2023/01/17 10:24:56;;;;;;;2.88;0.40;;;3.30;99.90;;;;;;6091258;23;20093;-78
2023/01/17 10:27:29;;;;;;;3.15;0.35;;;3.40;99.90;;;;;;6090674;23;20104;-80
2023/01/17 10:29:57;;;;;;;3.22;0.30;;;3.60;99.90;;;;;;6067969;23;20014;-80
2023/01/17 10:32:28;;;;;;;2.03;0.47;;;3.70;99.90;;;;;;6069149;23;20096;-79
2023/01/17 10:34:54;;;;;;;2.40;0.38;;;3.80;99.90;;;;;;6070354;23;20010;-80
2023/01/17 10:37:36;;;;;;;4.88;0.80;;;3.50;99.90;;;;;;6066497;23;20126;-80
2023/01/17 10:40:14;;;;;;;3.72;0.40;;;3.60;99.90;;;;;;6071760;23;20014;-79
2023/01/17 10:42:50;;;;;;;1.58;0.40;;;3.70;99.90;;;;;;6069909;23;20156;-77
2023/01/17 10:45:30;;;;;;;3.67;0.30;;;3.50;99.90;;;;;;6071806;23;20029;-78
2023/01/17 10:48:11;;;;;;;0.45;0.15;;;3.40;99.90;;;;;;6104488;23;20099;-79
2023/01/17 10:51:03;;;;;;;2.35;0.45;;;3.40;99.90;;;;;;6183037;23;20031;-81
2023/01/17 10:53:34;;;;;;;1.88;0.30;;;3.50;99.90;;;;;;6183545;23;20075;-80
2023/01/17 10:56:01;;;;;;;0.93;0.30;;;3.30;99.90;;;;;;6182148;23;20444;-82
2023/01/17 10:58:26;;;;;;;3.80;0.30;;;3.40;99.90;;;;;;6208172;23;20016;-80
2023/01/17 11:01:16;;;;;;;3.80;0.73;;;3.20;99.90;;;;;;6182012;23;20666;-83
2023/01/17 11:03:44;;;;;;;3.45;0.50;;;3.30;99.90;;;;;;6204623;23;20073;-80
2023/01/17 11:06:18;;;;;;;3.05;0.35;;;3.20;99.90;;;;;;6181811;23;20087;-81
2023/01/17 11:08:53;;;;;;;1.52;0.30;;;3.30;99.90;;;;;;6183311;23;20095;-81
2023/01/17 11:11:23;;;;;;;2.08;0.40;;;3.40;99.90;;;;;;6207659;23;20020;-80
2023/01/17 11:13:51;;;;;;;3.03;0.40;;;3.40;99.90;;;;;;6179824;23;20070;-78
2023/01/17 11:16:23;;;;;;;4.72;0.85;;;3.50;99.90;;;;;;6208548;23;20021;-80
2023/01/17 11:19:07;;;;;;;3.08;0.50;;;3.50;99.90;;;;;;6183838;23;20016;-79
2023/01/17 11:21:35;;;;;;;4.05;0.70;;;3.30;99.90;;;;;;6185619;23;20018;-81
2023/01/17 11:24:09;;;;;;;3.53;0.90;;;3.30;99.90;;;;;;6211458;23;20022;-79
2023/01/17 11:26:37;;;;;;;4.57;1.03;;;3.40;99.90;;;;;;6185674;23;20018;-80
2023/01/17 11:29:16;;;;;;;4.38;0.85;;;3.50;99.90;;;;;;6186626;23;20321;-80
2023/01/17 11:31:41;;;;;;;4.63;0.82;;;3.40;99.90;;;;;;6182467;23;20055;-79
2023/01/17 11:34:21;;;;;;;7.55;1.10;;;3.40;99.90;;;;;;6206057;23;20017;-80
2023/01/17 11:36:48;;;;;;;4.38;1.13;;;3.60;99.90;;;;;;6183471;23;20080;-80
2023/01/17 11:39:17;;;;;;;5.95;1.10;;;3.50;99.90;;;;;;6185659;23;20017;-81
2023/01/17 11:41:44;;;;;;;3.67;0.88;;;3.50;99.90;;;;;;6186153;23;20017;-80
2023/01/17 11:44:26;;;;;;;5.78;1.10;;;3.50;99.90;;;;;;6210625;23;20119;-81
2023/01/17 11:47:11;;;;;;;7.70;1.15;;;3.70;99.90;;;;;;6186505;23;20305;-80
2023/01/17 11:49:39;;;;;;;4.10;1.05;;;3.70;99.90;;;;;;6213116;23;20016;-79
2023/01/17 11:52:32;;;;;;;4.75;1.23;;;3.70;99.90;;;;;;6186766;23;20063;-79
2023/01/17 11:54:57;;;;;;;6.53;1.40;;;3.70;99.90;;;;;;6188588;23;20012;-79
2023/01/17 11:57:30;;;;;;;5.10;1.15;;;3.80;99.90;;;;;;6212033;23;20302;-79
2023/01/17 12:00:07;;;;;;;8.10;1.20;;;3.80;99.90;;;;;;6188225;23;20043;-79
2023/01/17 12:02:49;;;;;;;3.90;0.95;;;3.80;99.90;;;;;;6186167;23;20020;-81
2023/01/17 12:05:26;;;;;;;12.38;1.30;;;3.70;99.90;;;;;;6212638;23;20020;-79
2023/01/17 12:08:10;;;;;;;7.32;1.33;;;4.00;99.90;;;;;;6210939;23;20021;-81
2023/01/17 12:11:01;;;;;;;9.02;1.20;;;3.90;99.90;;;;;;6211490;23;20020;-79
2023/01/17 12:14:01;;;;;;;11.13;1.08;;;3.90;99.90;;;;;;6186369;23;20091;-80
2023/01/17 12:16:45;;;;;;;3.72;0.80;;;4.00;99.90;;;;;;6211626;23;20078;-80
2023/01/17 12:19:32;;;;;;;8.30;1.10;;;4.10;99.90;;;;;;6212110;23;20492;-81
2023/01/17 12:22:22;;;;;;;6.80;0.80;;;4.20;99.90;;;;;;6187043;23;20020;-81
2023/01/17 12:25:13;;;;;;;10.25;1.20;;;4.30;99.90;;;;;;6212134;23;20092;-80
2023/01/17 12:28:02;;;;;;;5.63;1.00;;;4.40;99.90;;;;;;6186534;23;20028;-80
2023/01/17 12:31:04;;;;;;;5.63;1.10;;;4.40;99.90;;;;;;6186921;23;20044;-81
2023/01/17 12:33:48;;;;;;;11.15;1.33;;;4.40;99.90;;;;;;6187552;23;20043;-80
2023/01/17 12:36:18;;;;;;;8.38;1.02;;;4.40;99.90;;;;;;6213072;23;20095;-80
2023/01/17 12:38:46;;;;;;;5.22;0.88;;;4.40;99.90;;;;;;6186182;23;20013;-79
2023/01/17 12:41:17;;;;;;;5.88;0.80;;;4.40;99.90;;;;;;6211912;23;20099;-79
2023/01/17 12:43:43;;;;;;;4.75;0.63;;;4.50;99.90;;;;;;6211723;23;20406;-80
2023/01/17 12:46:20;;;;;;;3.25;0.63;;;4.40;99.90;;;;;;6186061;23;20039;-77
2023/01/17 12:48:52;;;;;;;4.32;0.80;;;4.50;99.90;;;;;;6186841;23;20031;-78
2023/01/17 12:51:29;;;;;;;8.07;0.85;;;4.50;99.90;;;;;;6218430;23;20091;-79
2023/01/17 12:54:06;;;;;;;8.93;1.08;;;4.60;99.90;;;;;;6187103;23;20417;-78
2023/01/17 12:56:41;;;;;;;9.90;1.25;;;4.60;99.90;;;;;;6159949;23;20092;-80
2023/01/17 12:59:18;;;;;;;3.28;0.77;;;4.80;99.90;;;;;;6208363;23;20371;-80
2023/01/17 13:01:56;;;;;;;5.53;0.80;;;4.70;99.90;;;;;;6185049;23;20024;-79
2023/01/17 13:04:36;;;;;;;7.45;0.77;;;4.70;99.90;;;;;;6211126;23;20024;-80
2023/01/17 13:07:18;;;;;;;5.55;1.15;;;4.80;99.90;;;;;;6215810;23;20028;-80
2023/01/17 13:09:54;;;;;;;10.18;1.23;;;4.80;99.90;;;;;;6185762;23;20020;-80
2023/01/17 13:12:21;;;;;;;7.15;0.93;;;4.80;99.90;;;;;;6186398;23;20359;-80
2023/01/17 13:14:47;;;;;;;7.72;1.13;;;4.80;99.90;;;;;;6210029;23;20013;-79
2023/01/17 13:17:22;;;;;;;3.67;0.68;;;4.70;99.90;;;;;;6210098;23;20027;-82
2023/01/17 13:20:07;;;;;;;11.20;1.15;;;4.80;99.90;;;;;;6212973;23;20106;-81
2023/01/17 13:22:34;;;;;;;8.95;1.00;;;4.70;99.90;;;;;;6199167;23;20467;-80
2023/01/17 13:25:30;;;;;;;4.47;0.85;;;4.60;99.90;;;;;;6189769;23;20044;-81
2023/01/17 13:28:12;;;;;;;3.70;1.00;;;4.60;99.90;;;;;;6215672;23;20071;-80
2023/01/17 13:31:31;;;;;;;11.25;1.00;;;4.50;99.90;;;;;;6213187;23;20044;-81
2023/01/17 13:34:51;;;;;;;6.43;1.13;;;4.40;99.90;;;;;;6182462;23;20445;-80
2023/01/17 13:37:44;;;;;;;5.13;1.10;;;4.30;99.90;;;;;;6073401;23;20501;-81
2023/01/17 13:40:40;;;;;;;6.05;1.15;;;4.20;99.90;;;;;;6096536;23;20088;-80
2023/01/17 13:43:18;;;;;;;9.73;5.38;;;4.30;99.90;;;;;;6097689;23;20013;-82
2023/01/17 13:45:56;;;;;;;7.72;1.15;;;4.20;99.90;;;;;;6123295;23;20025;-81
2023/01/17 13:48:22;;;;;;;3.65;0.90;;;4.00;99.90;;;;;;6121786;23;20024;-81
2023/01/17 13:50:57;;;;;;;7.05;0.80;;;4.10;99.90;;;;;;6073341;23;20093;-81
2023/01/17 13:53:37;;;;;;;6.10;1.92;;;4.00;99.90;;;;;;6121570;23;20426;-82
2023/01/17 13:56:18;;;;;;;3.05;0.95;;;4.10;99.90;;;;;;6067858;23;20113;-81
2023/01/17 13:58:45;;;;;;;12.60;2.08;;;4.10;99.90;;;;;;6069953;23;20093;-79
2023/01/17 14:01:11;;;;;;;7.18;1.27;;;4.10;99.90;;;;;;6069585;23;20417;-78
2023/01/17 14:03:49;;;;;;;8.63;1.10;;;4.30;99.90;;;;;;6092616;23;20101;-80
2023/01/17 14:06:34;;;;;;;4.05;0.80;;;4.20;99.90;;;;;;6070544;23;20014;-81
2023/01/17 14:09:12;;;;;;;7.00;0.75;;;4.30;99.90;;;;;;6069717;23;20046;-81
2023/01/17 14:11:51;;;;;;;6.10;0.70;;;4.30;99.90;;;;;;6141042;23;20017;-80
2023/01/17 14:14:39;;;;;;;7.63;0.70;;;4.40;99.90;;;;;;6184528;23;20019;-79
2023/01/17 14:17:17;;;;;;;2.67;0.63;;;4.40;99.90;;;;;;6209025;23;20035;-79
2023/01/17 14:19:45;;;;;;;3.90;0.68;;;4.30;99.90;;;;;;6182351;23;20017;-79
2023/01/17 14:22:19;;;;;;;4.88;0.80;;;4.30;99.90;;;;;;6183562;23;20017;-78
2023/01/17 14:25:18;;;;;;;4.75;0.85;;;4.20;99.90;;;;;;6208582;23;20062;-79
2023/01/17 14:28:29;;;;;;;2.60;1.00;;;4.10;99.90;;;;;;6208668;23;20484;-81
2023/01/17 14:30:56;;;;;;;4.82;0.75;;;4.10;99.90;;;;;;6152448;23;20024;-79
2023/01/17 14:33:34;;;;;;;4.88;1.00;;;4.00;99.90;;;;;;6206693;23;20017;-79
2023/01/17 14:36:03;;;;;;;4.30;1.00;;;3.90;99.90;;;;;;6181740;23;20025;-80
2023/01/17 14:38:32;;;;;;;3.08;0.70;;;3.80;99.90;;;;;;6207026;23;20099;-80
2023/01/17 14:41:07;;;;;;;6.85;0.63;;;3.80;99.90;;;;;;6183119;23;20012;-80
2023/01/17 14:43:37;;;;;;;1.83;0.50;;;3.70;99.90;;;;;;6186245;23;20015;-79
2023/01/17 14:46:23;;;;;;;5.10;0.85;;;3.80;99.90;;;;;;6185491;23;20095;-80